Arctic Village, AK

1:55 PM AKDT on September 04, 2015 (GMT -0800)
Arctic Village | | Change Station
CLOSE
Current Station
Airport
Location: Arctic Village,
Elevation: 2090 ft
Nearby Weather Stations

Elev 2090 ft 68.11 °N, 145.58 °W | Updated 19 minutes ago

Overcast
Overcast
43 °F
Feels Like 40 °F
N
5
Wind Variable Wind from NNE

Today
High -- | Low -- °F
--% Chance of Precip.
Yesterday
High -- | Low -- °F
Precip. -- in
6:18 AM 9:01 PM
Waning Gibbous, 55% visible
Pressure 29.91 in
Visibility 10.0 miles
Clouds Overcast 3300 ft
Windchill 40 °F
Dew Point 27 °F
Humidity 53%
Rainfall 0.00 in
Snow Depth Not available.
UV 1 out of 12
Pollen Not available.
Air Quality Not available.
Flu Activity Not available.
METAR PARC 042136Z AUTO 02004KT 10SM OVC033 06/M03 A2991 RMK AO1
Pressure 29.91 in
Visibility 10.0 miles
Clouds Overcast 3300 ft
Windchill 40 °F
Dew Point 27 °F
Humidity 53%
Rainfall 0.00 in
Snow Depth Not available.
UV 1 out of 12
Pollen Not available.
Air Quality Not available.
Flu Activity Not available.
METAR PARC 042136Z AUTO 02004KT 10SM OVC033 06/M03 A2991 RMK AO1

10-Day Weather Forecast

×

Almanac

Astronomy

Sep. 04, 2015 Rise Set
Actual Time
Civil Twilight
Nautical Twilight
Astronomical Twilight
Moon
Length of Visible Light
Length of Day
Tomorrow will be .
, % of the Moon is Illuminated

Today's Extremes

State Highs State Lows

Community

WunderPhotos

Upload Photos

1,852,297 photos uploaded!

WunderBlogs® & News

Nearby

Air Quality

  Air Quality AQ Index Pollutant
Not available.

Snow Depth

Station Depth Elevation

Earthquake Activity

City Distance Mag. Time & Date
Minimum magnitude displayed is 2.5.

Coastal Water Temperatures

Place Temperature

Stations

Nearby Weather Stations

Station Location Temp. Windchill Dew Point Humidity Wind Precip. Elev Updated Type